Time;durP1;ratioP1;P1;durP2;ratioP2;P2;SDS_P1;SDS_P2;PMS_P1;PMS_P2;Temp;Humidity;BMP_temperature;BMP_pressure;BME280_temperature;BME280_humidity;BME280_pressure;Samples;Min_cycle;Max_cycle;Signal;HPM_P1;HPM_P2
2022/10/26 00:02:16;;;;;;;3.10;2.07;;;12.30;98.00;;;;;;5012980;28;20465;-69
2022/10/26 00:04:43;;;;;;;2.40;1.73;;;12.10;98.00;;;;;;5013206;28;20465;-69
2022/10/26 00:07:11;;;;;;;6.33;2.07;;;12.10;98.00;;;;;;4994529;28;20524;-68
2022/10/26 00:09:39;;;;;;;2.70;2.00;;;12.20;98.00;;;;;;5012840;28;20466;-69
2022/10/26 00:12:06;;;;;;;3.40;2.17;;;12.20;98.00;;;;;;4995508;28;20623;-69
2022/10/26 00:14:33;;;;;;;4.00;2.30;;;12.30;98.00;;;;;;5013078;28;20829;-68
2022/10/26 00:17:00;;;;;;;4.40;2.03;;;12.50;98.00;;;;;;5012760;28;21067;-69
2022/10/26 00:19:27;;;;;;;3.47;2.23;;;12.40;98.00;;;;;;5012822;28;20461;-69
2022/10/26 00:21:54;;;;;;;2.77;1.63;;;12.40;98.00;;;;;;5012747;28;20455;-69
2022/10/26 00:24:23;;;;;;;3.47;2.27;;;12.40;98.00;;;;;;5012581;28;21029;-69
2022/10/26 00:26:50;;;;;;;3.33;2.00;;;12.50;98.00;;;;;;5012686;28;20515;-69
2022/10/26 00:29:17;;;;;;;4.03;2.27;;;12.60;98.00;;;;;;5012556;28;20539;-68
2022/10/26 00:31:45;;;;;;;3.63;1.80;;;12.80;98.00;;;;;;5012694;28;20534;-68
2022/10/26 00:34:12;;;;;;;2.30;1.70;;;12.80;98.00;;;;;;5012407;28;20462;-68
2022/10/26 00:36:39;;;;;;;3.43;2.03;;;12.50;98.00;;;;;;5012358;28;20490;-69
2022/10/26 00:39:06;;;;;;;3.20;1.90;;;12.50;98.00;;;;;;5012522;28;20454;-70
2022/10/26 00:41:35;;;;;;;3.00;1.90;;;12.50;98.00;;;;;;5012350;28;20464;-68
2022/10/26 00:44:02;;;;;;;3.00;1.97;;;12.40;98.00;;;;;;5012409;28;20491;-69
2022/10/26 00:46:32;;;;;;;2.17;1.50;;;12.50;98.00;;;;;;5012147;28;20473;-69
2022/10/26 00:49:04;;;;;;;3.20;2.37;;;12.40;98.00;;;;;;5012510;28;20494;-69
2022/10/26 00:51:34;;;;;;;2.27;2.10;;;12.20;98.00;;;;;;5012569;28;20915;-69
2022/10/26 00:54:03;;;;;;;2.80;2.20;;;12.40;98.00;;;;;;5012516;28;20456;-69
2022/10/26 00:56:31;;;;;;;3.10;1.87;;;12.30;98.00;;;;;;5012124;28;20485;-69
2022/10/26 00:59:03;;;;;;;3.53;1.97;;;12.30;98.00;;;;;;4994609;28;20513;-68
2022/10/26 01:01:33;;;;;;;2.53;1.80;;;12.40;98.00;;;;;;5012052;28;20460;-69
2022/10/26 01:04:01;;;;;;;5.00;1.93;;;12.40;98.00;;;;;;4994954;28;20465;-69
2022/10/26 01:06:30;;;;;;;2.80;1.83;;;12.40;98.00;;;;;;5012006;28;20469;-69
2022/10/26 01:08:57;;;;;;;3.07;2.00;;;12.30;98.00;;;;;;5012043;28;20866;-69
2022/10/26 01:11:24;;;;;;;2.70;2.00;;;12.40;98.00;;;;;;5012207;28;20460;-68
2022/10/26 01:13:54;;;;;;;3.67;2.07;;;12.40;98.00;;;;;;4994543;28;20464;-69
2022/10/26 01:16:37;;;;;;;3.30;2.03;;;12.50;98.00;;;;;;5011589;28;20483;-69
2022/10/26 01:19:25;;;;;;;3.73;2.07;;;12.60;98.00;;;;;;5011726;28;20478;-69
2022/10/26 01:21:57;;;;;;;2.43;1.73;;;12.60;98.00;;;;;;5011750;28;20469;-69
2022/10/26 01:24:43;;;;;;;3.67;2.07;;;12.70;98.00;;;;;;5011793;28;20464;-69
2022/10/26 01:27:24;;;;;;;2.83;1.97;;;12.50;98.00;;;;;;5011700;28;20468;-68
2022/10/26 01:30:14;;;;;;;2.63;2.03;;;12.40;98.00;;;;;;5011691;28;20557;-68
2022/10/26 01:32:52;;;;;;;2.63;1.83;;;12.40;98.00;;;;;;5011641;28;20462;-68
2022/10/26 01:35:26;;;;;;;1.63;1.40;;;12.40;98.00;;;;;;5011647;28;20551;-69
2022/10/26 01:37:58;;;;;;;3.10;2.50;;;12.50;98.00;;;;;;5011713;28;20487;-69
2022/10/26 01:40:31;;;;;;;4.97;2.40;;;12.60;98.00;;;;;;5011557;28;20834;-70
2022/10/26 01:43:01;;;;;;;2.13;1.83;;;12.60;98.00;;;;;;4994790;28;20495;-69
2022/10/26 01:45:37;;;;;;;2.93;1.90;;;12.60;98.00;;;;;;5011488;28;20464;-69
2022/10/26 01:48:05;;;;;;;4.50;2.00;;;12.70;98.00;;;;;;5011090;28;20472;-69
2022/10/26 01:50:32;;;;;;;3.97;2.20;;;12.80;98.00;;;;;;5011516;28;20473;-69
2022/10/26 01:53:00;;;;;;;3.13;1.80;;;12.90;98.00;;;;;;5011651;28;20971;-69
2022/10/26 01:55:48;;;;;;;2.33;1.90;;;12.90;98.00;;;;;;4994023;28;20662;-69
2022/10/26 01:58:46;;;;;;;2.13;1.60;;;12.90;98.00;;;;;;5011311;28;20495;-70
2022/10/26 02:01:30;;;;;;;2.50;1.80;;;12.80;98.00;;;;;;5010434;28;20473;-69
2022/10/26 02:04:06;;;;;;;3.73;2.10;;;12.60;98.00;;;;;;5011348;28;20459;-69
2022/10/26 02:06:44;;;;;;;2.60;2.10;;;12.40;98.00;;;;;;4994561;28;21037;-70
2022/10/26 02:09:20;;;;;;;3.90;2.07;;;12.50;98.00;;;;;;5011336;28;20863;-69
2022/10/26 02:11:51;;;;;;;2.63;1.80;;;12.60;98.00;;;;;;4978190;28;20634;-68
2022/10/26 02:14:22;;;;;;;4.63;2.13;;;12.60;98.00;;;;;;5011213;28;20464;-69
2022/10/26 02:16:57;;;;;;;4.00;1.90;;;12.60;98.00;;;;;;5011174;28;20493;-69
2022/10/26 02:19:33;;;;;;;1.67;1.47;;;12.80;98.00;;;;;;5011192;28;20506;-70
2022/10/26 02:22:08;;;;;;;3.17;1.63;;;12.70;98.00;;;;;;5011259;28;20495;-69
2022/10/26 02:24:37;;;;;;;2.13;1.83;;;12.50;98.00;;;;;;5011237;28;20870;-68
2022/10/26 02:27:08;;;;;;;4.30;2.20;;;12.60;98.00;;;;;;5011115;28;20523;-69
2022/10/26 02:29:36;;;;;;;5.67;2.00;;;12.60;98.00;;;;;;5011083;28;20465;-69
2022/10/26 02:32:08;;;;;;;2.90;1.90;;;12.70;98.00;;;;;;5015044;28;20464;-68
2022/10/26 02:34:39;;;;;;;4.43;2.70;;;12.60;98.00;;;;;;5015076;28;20469;-70
2022/10/26 02:37:07;;;;;;;2.83;1.93;;;12.50;98.00;;;;;;5014796;28;20487;-69
2022/10/26 02:39:37;;;;;;;3.00;2.00;;;12.50;98.00;;;;;;5014660;28;20464;-69
2022/10/26 02:42:08;;;;;;;2.90;2.13;;;12.60;98.00;;;;;;4997564;28;20450;-70
2022/10/26 02:44:40;;;;;;;3.53;1.83;;;12.70;98.00;;;;;;5014616;28;20948;-69
2022/10/26 02:47:09;;;;;;;3.57;1.87;;;12.60;98.00;;;;;;4980925;28;21014;-70
2022/10/26 02:49:36;;;;;;;2.83;1.80;;;12.50;98.00;;;;;;5014611;28;20460;-68
2022/10/26 02:52:09;;;;;;;4.07;2.43;;;12.40;98.00;;;;;;5014665;28;20554;-68
2022/10/26 02:54:45;;;;;;;2.40;1.90;;;12.40;98.00;;;;;;5014659;28;20460;-68
2022/10/26 02:57:16;;;;;;;4.57;2.00;;;12.40;98.00;;;;;;5014349;28;20493;-69
2022/10/26 02:59:47;;;;;;;2.57;1.73;;;12.40;98.00;;;;;;5014575;28;20870;-69
2022/10/26 03:02:17;;;;;;;3.03;1.70;;;12.50;98.00;;;;;;4997163;28;20498;-69
2022/10/26 03:04:44;;;;;;;4.73;2.67;;;12.60;98.00;;;;;;5014276;28;20484;-69
2022/10/26 03:07:11;;;;;;;7.07;3.20;;;12.50;98.00;;;;;;5014218;28;20473;-69
2022/10/26 03:09:38;;;;;;;3.20;2.10;;;12.50;98.00;;;;;;5014110;28;20488;-68
2022/10/26 03:12:06;;;;;;;2.73;1.93;;;12.60;98.00;;;;;;5014077;28;20457;-69
2022/10/26 03:14:33;;;;;;;2.90;1.83;;;12.60;98.00;;;;;;5013933;28;20462;-69
2022/10/26 03:17:01;;;;;;;2.57;2.00;;;12.60;98.00;;;;;;5013973;28;20936;-69
2022/10/26 03:19:29;;;;;;;2.37;1.80;;;12.60;98.00;;;;;;4996633;28;20477;-69
2022/10/26 03:21:56;;;;;;;2.70;1.77;;;12.60;98.00;;;;;;5014011;28;20457;-69
2022/10/26 03:24:23;;;;;;;2.00;1.50;;;12.40;98.00;;;;;;5014135;28;20940;-69
2022/10/26 03:26:51;;;;;;;3.40;1.80;;;12.40;98.00;;;;;;4996331;28;20467;-69
2022/10/26 03:29:18;;;;;;;2.10;1.57;;;12.30;98.00;;;;;;4996312;28;20537;-69
2022/10/26 03:31:45;;;;;;;2.80;1.90;;;12.20;98.00;;;;;;5013761;28;20616;-69
2022/10/26 03:34:12;;;;;;;3.47;1.80;;;12.20;98.00;;;;;;5013889;28;20973;-68
2022/10/26 03:36:41;;;;;;;2.17;1.90;;;12.30;98.00;;;;;;5013577;28;20466;-68
2022/10/26 03:39:10;;;;;;;2.70;1.67;;;12.30;98.00;;;;;;5013805;28;20457;-69
2022/10/26 03:41:38;;;;;;;2.27;1.83;;;12.40;98.00;;;;;;5013576;28;20461;-69
2022/10/26 03:44:05;;;;;;;3.17;1.87;;;12.40;98.00;;;;;;5013761;28;20947;-69
2022/10/26 03:46:32;;;;;;;2.30;1.87;;;12.50;98.00;;;;;;4995914;28;20479;-70
2022/10/26 03:48:59;;;;;;;2.03;1.63;;;12.50;98.00;;;;;;5013417;28;20461;-68
2022/10/26 03:51:26;;;;;;;2.60;1.83;;;12.50;98.00;;;;;;5013430;28;21021;-69
2022/10/26 03:53:55;;;;;;;2.87;1.80;;;12.50;98.00;;;;;;5013703;28;20456;-69
2022/10/26 03:56:26;;;;;;;2.53;1.90;;;12.50;98.00;;;;;;5013331;28;20802;-69
2022/10/26 03:58:53;;;;;;;4.60;2.23;;;12.50;98.00;;;;;;5013189;28;20848;-69
2022/10/26 04:01:20;;;;;;;3.07;1.97;;;12.50;98.00;;;;;;5013124;28;20894;-69
2022/10/26 04:03:47;;;;;;;2.83;1.83;;;12.60;98.00;;;;;;4995930;28;20478;-68
2022/10/26 04:06:14;;;;;;;3.17;2.10;;;12.70;98.00;;;;;;5013006;28;20449;-69
2022/10/26 04:08:41;;;;;;;16.73;1.93;;;12.60;98.00;;;;;;5012952;28;20465;-69
2022/10/26 04:11:09;;;;;;;2.10;1.50;;;12.60;98.00;;;;;;5012866;28;20452;-69
2022/10/26 04:13:37;;;;;;;2.27;1.80;;;12.50;98.00;;;;;;5012889;28;20991;-69
2022/10/26 04:16:04;;;;;;;3.53;1.80;;;12.50;98.00;;;;;;4995575;28;20456;-70
2022/10/26 04:18:31;;;;;;;2.30;2.10;;;12.50;98.00;;;;;;4994774;28;21169;-69
2022/10/26 04:21:01;;;;;;;2.60;2.00;;;12.60;98.00;;;;;;5012820;28;20454;-68
2022/10/26 04:23:28;;;;;;;2.20;2.10;;;12.70;98.00;;;;;;5012761;28;20501;-69
2022/10/26 04:25:55;;;;;;;2.67;1.80;;;12.70;98.00;;;;;;5012698;28;20857;-69
2022/10/26 04:28:24;;;;;;;2.43;1.57;;;12.70;98.00;;;;;;5012608;28;20459;-69
2022/10/26 04:30:51;;;;;;;4.83;1.80;;;12.70;98.00;;;;;;5012639;28;20459;-69
2022/10/26 04:33:18;;;;;;;2.90;1.73;;;12.70;98.00;;;;;;5012674;28;20469;-68
2022/10/26 04:35:47;;;;;;;2.97;1.57;;;12.70;98.00;;;;;;4995342;28;20483;-69
2022/10/26 04:38:14;;;;;;;2.90;1.93;;;12.90;98.00;;;;;;4995230;28;20537;-69
2022/10/26 04:40:41;;;;;;;3.73;2.63;;;13.10;98.00;;;;;;5012419;28;20465;-69
2022/10/26 04:43:08;;;;;;;3.23;2.10;;;13.20;98.00;;;;;;5012446;28;20458;-69
2022/10/26 04:45:37;;;;;;;2.73;2.03;;;13.10;98.00;;;;;;5012381;28;20453;-68
2022/10/26 04:48:06;;;;;;;2.80;2.13;;;13.10;98.00;;;;;;5012181;28;20473;-68
2022/10/26 04:50:34;;;;;;;4.13;2.20;;;12.90;98.00;;;;;;5012301;28;20464;-69
2022/10/26 04:53:01;;;;;;;6.07;2.23;;;12.90;98.00;;;;;;4994839;28;20467;-68
2022/10/26 04:55:28;;;;;;;3.30;2.30;;;13.00;98.00;;;;;;5012462;28;20468;-70
2022/10/26 04:57:56;;;;;;;3.00;2.10;;;12.90;98.00;;;;;;4994953;28;20886;-69
2022/10/26 05:00:24;;;;;;;2.07;1.70;;;12.90;98.00;;;;;;4994881;28;20458;-68
2022/10/26 05:02:52;;;;;;;4.00;1.90;;;13.00;98.00;;;;;;4994451;28;20506;-69
2022/10/26 05:05:20;;;;;;;4.43;2.37;;;12.90;98.00;;;;;;5011916;28;20454;-69
2022/10/26 05:07:54;;;;;;;3.00;1.70;;;12.80;98.00;;;;;;5012091;28;20820;-68
2022/10/26 05:10:28;;;;;;;4.10;2.00;;;12.80;98.00;;;;;;5011948;28;20455;-69
2022/10/26 05:12:58;;;;;;;3.07;1.90;;;12.80;98.00;;;;;;5011917;28;20450;-70
2022/10/26 05:15:25;;;;;;;1.90;1.63;;;12.90;98.00;;;;;;4994458;28;20545;-69
2022/10/26 05:17:57;;;;;;;2.53;1.63;;;12.90;98.00;;;;;;5011730;28;20494;-69
2022/10/26 05:20:28;;;;;;;2.50;2.00;;;13.00;98.00;;;;;;5011903;28;20488;-70
2022/10/26 05:22:56;;;;;;;2.77;1.83;;;12.90;98.00;;;;;;5011819;28;20992;-69
2022/10/26 05:25:23;;;;;;;2.23;1.57;;;12.90;98.00;;;;;;4994273;28;20452;-69
2022/10/26 05:27:50;;;;;;;3.10;2.30;;;13.00;98.00;;;;;;5011769;28;20848;-69
2022/10/26 05:30:17;;;;;;;2.00;1.77;;;13.00;98.00;;;;;;5009739;28;20456;-69
2022/10/26 05:32:44;;;;;;;2.07;1.70;;;12.90;98.00;;;;;;5011608;28;20466;-68
2022/10/26 05:35:13;;;;;;;3.70;2.03;;;12.90;98.00;;;;;;5011595;28;20461;-69
2022/10/26 05:37:40;;;;;;;3.80;2.13;;;12.80;98.00;;;;;;5011556;28;20586;-70
2022/10/26 05:40:08;;;;;;;3.33;2.20;;;12.70;98.00;;;;;;5011585;28;20460;-69
2022/10/26 05:42:35;;;;;;;3.20;2.13;;;12.70;98.00;;;;;;4993746;28;20485;-68
2022/10/26 05:45:03;;;;;;;2.60;1.70;;;12.70;98.00;;;;;;5011480;28;20951;-69
2022/10/26 05:47:30;;;;;;;2.97;1.87;;;12.80;98.00;;;;;;5010907;28;20569;-68
2022/10/26 05:49:57;;;;;;;2.63;1.70;;;13.00;98.00;;;;;;5010837;28;20508;-68
2022/10/26 05:52:25;;;;;;;2.13;1.70;;;13.10;98.00;;;;;;5010803;28;20463;-69
2022/10/26 05:54:52;;;;;;;2.57;2.10;;;13.00;98.00;;;;;;5010941;28;20843;-69
2022/10/26 05:57:20;;;;;;;3.00;1.87;;;12.90;98.00;;;;;;5010601;28;20473;-68
2022/10/26 05:59:47;;;;;;;2.60;1.70;;;12.90;98.00;;;;;;5010479;28;20463;-68
2022/10/26 06:02:26;;;;;;;3.27;2.20;;;12.80;98.00;;;;;;5010375;28;20468;-69
2022/10/26 06:04:57;;;;;;;3.13;1.70;;;12.70;98.00;;;;;;4993776;28;20462;-69
2022/10/26 06:07:29;;;;;;;3.50;1.73;;;12.80;98.00;;;;;;5013903;28;20469;-68
2022/10/26 06:09:57;;;;;;;2.67;2.00;;;12.80;98.00;;;;;;5013904;28;20505;-69
2022/10/26 06:12:25;;;;;;;2.93;2.17;;;12.80;98.00;;;;;;5013805;28;20951;-68
2022/10/26 06:14:53;;;;;;;2.23;1.83;;;12.90;98.00;;;;;;5014035;28;20551;-68
2022/10/26 06:17:35;;;;;;;3.23;2.30;;;12.90;98.00;;;;;;4996447;28;20455;-69
2022/10/26 06:20:17;;;;;;;2.00;1.87;;;12.90;98.00;;;;;;5013983;28;20461;-69
2022/10/26 06:23:00;;;;;;;8.13;2.40;;;12.90;98.00;;;;;;5013953;28;20457;-68
2022/10/26 06:25:37;;;;;;;2.90;2.07;;;12.90;98.00;;;;;;5013673;28;20453;-69
2022/10/26 06:28:12;;;;;;;5.20;2.53;;;12.90;98.00;;;;;;5013722;28;20544;-69
2022/10/26 06:30:43;;;;;;;3.23;2.07;;;12.90;98.00;;;;;;5013542;28;20489;-68
2022/10/26 06:33:12;;;;;;;3.07;1.97;;;12.90;98.00;;;;;;5013567;28;20516;-68
2022/10/26 06:35:51;;;;;;;4.33;2.03;;;12.80;98.00;;;;;;5013575;28;20457;-69
2022/10/26 06:38:21;;;;;;;3.00;2.03;;;12.90;98.00;;;;;;5013291;28;20489;-68
2022/10/26 06:40:53;;;;;;;5.60;2.17;;;12.90;98.00;;;;;;5013555;28;20457;-69
2022/10/26 06:43:25;;;;;;;4.67;2.40;;;13.00;98.00;;;;;;5013400;28;20472;-69
2022/10/26 06:46:03;;;;;;;4.40;2.17;;;13.00;98.00;;;;;;4996475;28;20456;-70
2022/10/26 06:48:39;;;;;;;3.60;2.10;;;13.10;98.00;;;;;;4966629;28;1378393;-67
2022/10/26 06:51:14;;;;;;;9.83;3.00;;;13.10;98.00;;;;;;5014861;28;20254;-67
2022/10/26 06:53:49;;;;;;;4.27;2.60;;;13.10;98.00;;;;;;5014910;28;20461;-66
2022/10/26 06:56:17;;;;;;;2.80;2.00;;;13.10;98.00;;;;;;5014727;28;20464;-66
2022/10/26 06:58:45;;;;;;;3.03;2.13;;;13.10;98.00;;;;;;5014530;28;20531;-66
2022/10/26 07:01:13;;;;;;;3.50;2.10;;;13.10;98.00;;;;;;5014320;28;20473;-66
2022/10/26 07:03:40;;;;;;;1.70;1.60;;;13.10;98.00;;;;;;5014646;28;20461;-66
2022/10/26 07:06:08;;;;;;;2.03;1.63;;;13.10;98.00;;;;;;5014369;28;20459;-66
2022/10/26 07:08:36;;;;;;;3.30;1.77;;;13.20;98.00;;;;;;5014733;28;20477;-66
2022/10/26 07:11:05;;;;;;;5.47;2.20;;;13.30;98.00;;;;;;5014935;28;20857;-67
2022/10/26 07:13:32;;;;;;;3.47;1.93;;;13.30;98.00;;;;;;5014613;28;20469;-67
2022/10/26 07:15:59;;;;;;;3.70;2.13;;;13.20;98.00;;;;;;5014273;28;20982;-67
2022/10/26 07:18:26;;;;;;;3.17;2.03;;;13.20;98.00;;;;;;4981424;28;21048;-67
2022/10/26 07:20:54;;;;;;;3.17;2.20;;;13.40;98.00;;;;;;5014551;28;20464;-67
2022/10/26 07:23:22;;;;;;;7.07;3.70;;;13.40;98.00;;;;;;4997261;28;20492;-67
2022/10/26 07:25:49;;;;;;;4.50;2.80;;;13.30;98.00;;;;;;5014544;28;20456;-66
2022/10/26 07:28:18;;;;;;;4.30;2.43;;;13.30;98.00;;;;;;5014559;28;20464;-66
2022/10/26 07:30:45;;;;;;;6.13;2.20;;;13.30;98.00;;;;;;5014453;28;20528;-66
2022/10/26 07:33:15;;;;;;;4.23;1.80;;;13.40;98.00;;;;;;5014399;28;20464;-66
2022/10/26 07:35:42;;;;;;;2.97;2.00;;;13.50;98.00;;;;;;5014465;28;20461;-66
2022/10/26 07:38:09;;;;;;;2.60;2.10;;;13.50;98.00;;;;;;5014296;28;20700;-66
2022/10/26 07:40:37;;;;;;;2.27;2.03;;;13.60;98.00;;;;;;5014496;28;20458;-66
2022/10/26 07:43:04;;;;;;;3.37;2.00;;;13.50;98.00;;;;;;5014403;28;20616;-67
2022/10/26 07:45:33;;;;;;;2.97;2.30;;;13.50;98.00;;;;;;5014401;28;20483;-67
2022/10/26 07:48:00;;;;;;;2.70;2.00;;;13.50;98.00;;;;;;5014362;28;20471;-67
2022/10/26 07:50:27;;;;;;;3.10;2.13;;;13.50;98.00;;;;;;5014085;28;20961;-66
2022/10/26 07:52:57;;;;;;;5.37;2.60;;;13.60;98.00;;;;;;5014414;28;20465;-66
2022/10/26 07:55:24;;;;;;;5.27;2.77;;;13.70;98.00;;;;;;5013929;28;20470;-67
2022/10/26 07:57:51;;;;;;;3.70;2.17;;;13.70;98.00;;;;;;5013976;28;20519;-67
2022/10/26 08:00:18;;;;;;;2.97;2.30;;;13.90;98.00;;;;;;5013784;28;20456;-66
2022/10/26 08:02:46;;;;;;;5.93;2.27;;;13.90;98.00;;;;;;5013880;28;20870;-67
2022/10/26 08:05:13;;;;;;;3.23;2.10;;;13.70;98.00;;;;;;5013899;28;20458;-65
2022/10/26 08:07:42;;;;;;;5.20;2.50;;;13.70;98.00;;;;;;4996287;28;20512;-64
2022/10/26 08:10:10;;;;;;;4.67;3.00;;;13.70;98.00;;;;;;5013799;28;20549;-63
2022/10/26 08:12:37;;;;;;;2.13;1.80;;;13.70;98.00;;;;;;5013567;28;20806;-64
2022/10/26 08:15:06;;;;;;;2.30;2.10;;;13.80;98.00;;;;;;5013612;28;20470;-65
2022/10/26 08:17:33;;;;;;;2.47;1.80;;;14.00;98.00;;;;;;5013710;28;20468;-64
2022/10/26 08:20:02;;;;;;;2.57;1.70;;;14.20;98.00;;;;;;4996082;28;20489;-67
2022/10/26 08:22:30;;;;;;;3.73;1.90;;;14.40;98.00;;;;;;5013522;28;20467;-63
2022/10/26 08:24:57;;;;;;;2.67;2.00;;;14.70;98.00;;;;;;5013559;28;20533;-66
2022/10/26 08:27:24;;;;;;;2.23;2.00;;;15.00;98.00;;;;;;5012705;28;20887;-67
2022/10/26 08:29:51;;;;;;;2.67;1.80;;;15.10;98.00;;;;;;5013336;28;20470;-64
2022/10/26 08:32:21;;;;;;;3.50;2.43;;;15.30;98.00;;;;;;5013379;28;20463;-64
2022/10/26 08:34:48;;;;;;;6.43;2.40;;;15.40;98.00;;;;;;5013119;28;20549;-63
2022/10/26 08:37:16;;;;;;;4.10;2.63;;;15.30;98.00;;;;;;5013240;28;20469;-64
2022/10/26 08:39:43;;;;;;;4.80;2.43;;;15.20;98.00;;;;;;5013327;28;20847;-63
2022/10/26 08:42:16;;;;;;;3.40;2.17;;;15.20;98.00;;;;;;4979844;28;20846;-64
2022/10/26 08:44:46;;;;;;;3.27;2.20;;;15.10;98.00;;;;;;5013328;28;20455;-64
2022/10/26 08:47:18;;;;;;;5.83;2.60;;;15.10;98.00;;;;;;4995540;28;20463;-63
2022/10/26 08:49:52;;;;;;;3.67;2.50;;;15.20;98.00;;;;;;5013356;28;20461;-64
2022/10/26 08:52:26;;;;;;;4.20;2.90;;;15.20;98.00;;;;;;4996351;28;20885;-64
2022/10/26 08:54:55;;;;;;;3.67;2.50;;;15.10;98.00;;;;;;5012926;28;20459;-64
2022/10/26 08:57:27;;;;;;;4.23;2.40;;;15.10;98.00;;;;;;5012291;28;20485;-64
2022/10/26 08:59:58;;;;;;;3.67;2.23;;;15.20;98.00;;;;;;5012286;28;21021;-65
2022/10/26 09:02:25;;;;;;;11.70;3.73;;;15.20;98.00;;;;;;5012292;28;20491;-65
2022/10/26 09:04:54;;;;;;;4.60;2.90;;;15.40;98.00;;;;;;4995177;28;20471;-64
2022/10/26 09:07:50;;;;;;;3.60;2.13;;;15.30;98.00;;;;;;5012625;28;20811;-64
2022/10/26 09:10:27;;;;;;;2.87;2.17;;;15.30;98.00;;;;;;4999592;28;20470;-64
2022/10/26 09:13:01;;;;;;;3.00;2.20;;;15.20;98.00;;;;;;5012648;28;20474;-64
2022/10/26 09:15:36;;;;;;;3.93;2.30;;;15.30;98.00;;;;;;4995818;28;20568;-64
2022/10/26 09:18:17;;;;;;;4.03;2.37;;;15.40;98.00;;;;;;5012673;28;20466;-64
2022/10/26 09:20:57;;;;;;;5.40;2.53;;;15.50;98.00;;;;;;4994915;28;20518;-64
2022/10/26 09:23:42;;;;;;;5.07;2.20;;;15.60;98.00;;;;;;4996012;28;20942;-64
2022/10/26 09:26:14;;;;;;;4.33;2.30;;;15.60;98.00;;;;;;5012354;28;20949;-65
2022/10/26 09:28:44;;;;;;;4.10;2.47;;;15.80;98.00;;;;;;4994776;28;20460;-64
2022/10/26 09:31:16;;;;;;;3.70;2.10;;;15.90;98.00;;;;;;5012003;28;20474;-65
2022/10/26 09:33:43;;;;;;;3.30;2.60;;;15.90;98.00;;;;;;5011662;28;20471;-64
2022/10/26 09:36:15;;;;;;;7.40;2.87;;;15.90;98.00;;;;;;5011322;28;20459;-64
2022/10/26 09:38:47;;;;;;;5.60;2.93;;;16.00;98.00;;;;;;5011136;28;21027;-64
2022/10/26 09:41:26;;;;;;;3.60;2.47;;;16.20;98.00;;;;;;5011618;28;20486;-64
2022/10/26 09:43:58;;;;;;;3.70;2.30;;;16.30;98.00;;;;;;5011642;28;20462;-65
2022/10/26 09:46:28;;;;;;;5.77;2.90;;;16.40;98.00;;;;;;5011381;28;20475;-65
2022/10/26 09:48:58;;;;;;;6.27;2.40;;;16.50;98.00;;;;;;4994557;28;20448;-64
2022/10/26 09:51:26;;;;;;;9.90;2.77;;;16.60;98.00;;;;;;5011715;28;20467;-64
2022/10/26 09:53:59;;;;;;;4.20;2.63;;;16.70;98.00;;;;;;5011513;28;20455;-66
2022/10/26 09:56:28;;;;;;;2.50;2.07;;;16.80;98.00;;;;;;4994266;28;20465;-67
2022/10/26 09:59:00;;;;;;;5.57;2.53;;;16.90;98.00;;;;;;4994037;28;20479;-65
2022/10/26 10:01:32;;;;;;;4.67;2.50;;;17.10;98.00;;;;;;5011067;28;20493;-64
2022/10/26 10:04:19;;;;;;;2.97;2.03;;;17.40;98.00;;;;;;5011504;28;20464;-66
2022/10/26 10:06:48;;;;;;;2.83;1.90;;;17.60;98.00;;;;;;5011403;28;20498;-65
2022/10/26 10:09:18;;;;;;;3.37;2.23;;;17.70;98.00;;;;;;4993974;28;20463;-65
2022/10/26 10:11:53;;;;;;;3.13;2.20;;;17.70;98.00;;;;;;5011405;28;20462;-65
2022/10/26 10:14:22;;;;;;;2.77;1.80;;;17.90;98.00;;;;;;5011298;28;20463;-66
2022/10/26 10:16:55;;;;;;;2.47;2.00;;;17.90;98.00;;;;;;4994090;28;20513;-66
2022/10/26 10:19:25;;;;;;;5.30;2.13;;;18.10;98.00;;;;;;5011017;28;20479;-65
2022/10/26 10:21:55;;;;;;;3.67;1.80;;;18.20;98.00;;;;;;5011211;28;20546;-67
2022/10/26 10:24:27;;;;;;;2.13;1.80;;;18.50;98.00;;;;;;5011053;28;21029;-66
2022/10/26 10:26:59;;;;;;;3.70;1.90;;;18.60;98.00;;;;;;5011278;28;20463;-68
2022/10/26 10:29:27;;;;;;;6.17;2.33;;;18.80;98.00;;;;;;5011040;28;20467;-66
2022/10/26 10:31:58;;;;;;;2.80;1.80;;;18.90;98.00;;;;;;5011156;28;20517;-67
2022/10/26 10:34:25;;;;;;;3.27;2.20;;;19.10;98.00;;;;;;5011236;28;20468;-66
2022/10/26 10:36:54;;;;;;;5.33;1.80;;;19.30;98.00;;;;;;5011054;28;20463;-65
2022/10/26 10:39:38;;;;;;;4.33;2.27;;;19.50;98.00;;;;;;5010807;28;20475;-68
2022/10/26 10:42:13;;;;;;;3.10;2.07;;;19.70;98.00;;;;;;5011040;28;20490;-68
2022/10/26 10:44:40;;;;;;;4.13;2.13;;;19.90;98.00;;;;;;5011216;28;20516;-67
2022/10/26 10:47:16;;;;;;;3.07;2.20;;;20.00;98.00;;;;;;4993600;28;20471;-67
2022/10/26 10:49:51;;;;;;;2.67;1.97;;;20.20;98.00;;;;;;5011211;28;20517;-68
2022/10/26 10:52:25;;;;;;;5.17;2.17;;;20.20;98.00;;;;;;5013783;28;20451;-66
2022/10/26 10:55:01;;;;;;;3.83;1.80;;;20.10;98.00;;;;;;5014779;28;20450;-67
2022/10/26 10:57:39;;;;;;;8.70;2.30;;;20.00;98.00;;;;;;5014376;28;20459;-66
2022/10/26 11:00:09;;;;;;;3.30;2.10;;;19.90;98.00;;;;;;5014474;28;20922;-66
2022/10/26 11:03:10;;;;;;;1.77;1.70;;;20.20;98.00;;;;;;5014644;28;20893;-66
2022/10/26 11:05:53;;;;;;;2.93;2.20;;;20.70;98.00;;;;;;5013737;28;20472;-68
2022/10/26 11:08:26;;;;;;;3.80;2.30;;;21.30;98.00;;;;;;4998227;28;20459;-67
2022/10/26 11:11:00;;;;;;;6.70;1.60;;;21.40;98.00;;;;;;5014304;28;20509;-66
2022/10/26 11:13:34;;;;;;;4.07;2.00;;;21.20;98.00;;;;;;5014206;28;20455;-68
2022/10/26 11:16:04;;;;;;;6.30;2.77;;;21.10;98.00;;;;;;5014096;28;20473;-66
2022/10/26 11:18:36;;;;;;;1.73;1.70;;;20.90;98.00;;;;;;5013955;28;20462;-67
2022/10/26 11:21:10;;;;;;;1.83;1.70;;;20.80;98.00;;;;;;4996504;28;20494;-68
2022/10/26 11:23:46;;;;;;;2.50;1.80;;;20.80;98.00;;;;;;5014017;28;20467;-66
2022/10/26 11:26:22;;;;;;;2.23;2.00;;;21.10;98.00;;;;;;5013890;28;20467;-67
2022/10/26 11:28:55;;;;;;;2.97;1.80;;;21.10;98.00;;;;;;5013912;28;20459;-67
2022/10/26 11:31:28;;;;;;;4.60;2.00;;;21.10;98.00;;;;;;5013804;28;20462;-66
2022/10/26 11:34:17;;;;;;;3.37;1.90;;;21.00;98.00;;;;;;4996532;28;20821;-67
2022/10/26 11:36:49;;;;;;;2.63;2.00;;;21.00;98.00;;;;;;5013840;28;20550;-66
2022/10/26 11:39:23;;;;;;;3.30;1.90;;;21.20;98.00;;;;;;5013569;28;20981;-67
2022/10/26 11:41:56;;;;;;;3.10;2.03;;;21.30;98.00;;;;;;5013926;28;20546;-66
2022/10/26 11:44:29;;;;;;;2.20;1.80;;;21.30;98.00;;;;;;5013710;28;20470;-68
2022/10/26 11:47:00;;;;;;;5.90;2.23;;;21.10;98.00;;;;;;4996735;28;20468;-66
2022/10/26 11:49:33;;;;;;;2.00;1.80;;;21.10;98.00;;;;;;5013806;28;20524;-67
2022/10/26 11:52:10;;;;;;;3.80;2.30;;;21.10;98.00;;;;;;5013743;28;20466;-67
2022/10/26 11:54:41;;;;;;;3.43;2.50;;;21.00;98.00;;;;;;4996154;28;20537;-69
2022/10/26 11:57:11;;;;;;;4.37;1.80;;;21.00;98.00;;;;;;5013482;28;20820;-67
2022/10/26 11:59:44;;;;;;;4.17;1.97;;;20.90;98.00;;;;;;5013328;28;21142;-69
2022/10/26 12:02:16;;;;;;;1.97;1.80;;;20.90;98.00;;;;;;4994793;28;20468;-67
2022/10/26 12:04:46;;;;;;;2.70;1.97;;;20.90;98.00;;;;;;5012968;28;21015;-66
2022/10/26 12:07:21;;;;;;;2.60;1.70;;;21.10;98.00;;;;;;5013475;28;20458;-66
2022/10/26 12:09:50;;;;;;;6.00;2.10;;;21.10;98.00;;;;;;5013327;28;20455;-67
2022/10/26 12:12:26;;;;;;;4.10;2.03;;;21.40;98.00;;;;;;5012798;28;20513;-67
2022/10/26 12:15:01;;;;;;;3.10;2.00;;;21.60;98.00;;;;;;5013088;28;20478;-66
2022/10/26 12:17:36;;;;;;;3.83;1.93;;;21.60;98.00;;;;;;4996212;28;20453;-65
2022/10/26 12:20:26;;;;;;;2.70;1.80;;;21.70;98.00;;;;;;5012985;28;20521;-65
2022/10/26 12:22:53;;;;;;;2.87;2.07;;;21.70;98.00;;;;;;4995301;28;20500;-68
2022/10/26 12:25:22;;;;;;;3.30;2.00;;;21.80;98.00;;;;;;5012963;28;20950;-65
2022/10/26 12:27:53;;;;;;;3.10;2.07;;;22.00;98.00;;;;;;4995388;28;20973;-65
2022/10/26 12:30:29;;;;;;;4.00;2.10;;;22.10;98.00;;;;;;5012667;28;20465;-65
2022/10/26 12:32:58;;;;;;;2.00;1.80;;;22.20;98.00;;;;;;5012666;28;20988;-66
2022/10/26 12:35:43;;;;;;;3.40;2.27;;;22.10;98.00;;;;;;5012559;28;20462;-65
2022/10/26 12:38:55;;;;;;;3.07;2.37;;;22.00;98.00;;;;;;5012617;28;20460;-66
2022/10/26 12:41:26;;;;;;;3.97;1.70;;;22.00;98.00;;;;;;4951751;29;20490;-65
2022/10/26 12:43:59;;;;;;;2.57;1.80;;;21.90;98.00;;;;;;5006258;28;20463;-65
2022/10/26 12:46:42;;;;;;;3.00;1.67;;;21.90;98.00;;;;;;5012389;28;20459;-65
2022/10/26 12:49:48;;;;;;;6.70;2.40;;;21.80;98.00;;;;;;5012768;28;20538;-65
2022/10/26 12:52:20;;;;;;;10.53;2.13;;;21.90;98.00;;;;;;4963419;28;20455;-65
2022/10/26 12:55:23;;;;;;;2.70;1.70;;;21.90;98.00;;;;;;5012352;28;20603;-65
2022/10/26 12:58:02;;;;;;;2.50;1.80;;;21.90;98.00;;;;;;5012372;28;20961;-65
2022/10/26 13:00:33;;;;;;;2.47;1.70;;;21.90;98.00;;;;;;5012255;28;20487;-65
2022/10/26 13:03:15;;;;;;;2.43;1.80;;;21.90;98.00;;;;;;5012324;28;20545;-66
2022/10/26 13:06:17;;;;;;;5.40;2.20;;;21.80;98.00;;;;;;5012334;28;20510;-65
2022/10/26 13:08:48;;;;;;;3.67;1.90;;;21.80;98.00;;;;;;4994485;28;20458;-65